Time;durP1;ratioP1;P1;durP2;ratioP2;P2;SDS_P1;SDS_P2;PMS_P1;PMS_P2;Temp;Humidity;BMP_temperature;BMP_pressure;BME280_temperature;BME280_humidity;BME280_pressure;Samples;Min_cycle;Max_cycle;Signal;HPM_P1;HPM_P2
2021/11/29 00:00:56;;;;;;;12.27;1.80;;;;;;;12.57;75.40;101104.63;5069303;28;20079;-64
2021/11/29 00:03:25;;;;;;;10.50;2.30;;;;;;;12.57;75.55;101110.22;5070393;28;20447;-63
2021/11/29 00:05:52;;;;;;;12.87;2.60;;;;;;;12.57;75.45;101104.63;5070190;28;20072;-64
2021/11/29 00:08:19;;;;;;;7.07;2.30;;;;;;;12.65;75.31;101116.38;5069927;28;20040;-62
2021/11/29 00:10:46;;;;;;;12.20;2.90;;;;;;;12.68;75.40;101116.66;5070788;28;20095;-61
2021/11/29 00:13:13;;;;;;;10.87;2.30;;;;;;;12.74;75.32;101117.50;5066803;28;20574;-63
2021/11/29 00:15:40;;;;;;;6.00;2.07;;;;;;;12.79;75.14;101106.31;5069601;28;20044;-63
2021/11/29 00:18:07;;;;;;;11.97;2.30;;;;;;;12.78;75.34;101116.66;5073266;28;20120;-67
2021/11/29 00:20:35;;;;;;;13.37;3.07;;;;;;;12.74;75.42;101111.91;5070586;28;20526;-62
2021/11/29 00:23:02;;;;;;;9.00;2.53;;;;;;;12.75;75.04;101111.66;5070726;28;20084;-63
2021/11/29 00:25:29;;;;;;;9.50;2.23;;;;;;;12.77;75.21;101105.75;5068857;28;20044;-66
2021/11/29 00:27:56;;;;;;;9.87;1.90;;;;;;;12.84;75.23;101103.50;5070091;28;20075;-64
2021/11/29 00:30:23;;;;;;;6.33;1.87;;;;;;;12.76;74.94;101084.47;5078796;28;20464;-64
2021/11/29 00:32:50;;;;;;;18.83;2.23;;;;;;;12.91;74.96;101104.03;5101332;28;20546;-64
2021/11/29 00:35:17;;;;;;;10.70;3.17;;;;;;;12.92;74.99;101096.47;5090151;28;20538;-64
2021/11/29 00:37:44;;;;;;;4.80;1.80;;;;;;;12.96;75.00;101090.03;5091118;28;20040;-61
2021/11/29 00:40:14;;;;;;;6.73;1.60;;;;;;;13.01;74.74;101087.19;5090908;28;20075;-61
2021/11/29 00:42:40;;;;;;;16.43;1.90;;;;;;;13.03;74.81;101090.56;5088556;28;20036;-61
2021/11/29 00:45:09;;;;;;;13.27;2.40;;;;;;;13.08;74.68;101086.06;5091588;28;20455;-61
2021/11/29 00:47:36;;;;;;;10.37;2.10;;;;;;;13.04;74.55;101068.97;5092005;28;20499;-60
2021/11/29 00:50:05;;;;;;;9.37;1.47;;;;;;;13.10;74.35;101072.63;5091004;28;20055;-60
2021/11/29 00:52:32;;;;;;;9.63;1.77;;;;;;;12.93;74.37;101065.38;5069510;28;20136;-61
2021/11/29 00:54:59;;;;;;;5.40;1.30;;;;;;;12.95;74.59;101070.69;5071937;28;20076;-60
2021/11/29 00:57:26;;;;;;;9.27;1.70;;;;;;;12.92;74.61;101066.50;5090857;28;20052;-62
2021/11/29 00:59:52;;;;;;;8.83;1.57;;;;;;;12.93;74.60;101064.53;5086746;28;20067;-62
2021/11/29 01:02:20;;;;;;;4.57;1.93;;;;;;;12.97;74.46;101057.22;5093711;28;20048;-61
2021/11/29 01:04:48;;;;;;;7.97;1.67;;;;;;;12.96;74.43;101047.97;5094570;28;20052;-62
2021/11/29 01:07:15;;;;;;;5.40;1.47;;;;;;;13.05;74.26;101063.06;5096780;28;20067;-62
2021/11/29 01:09:42;;;;;;;7.10;2.57;;;;;;;12.78;74.09;101014.94;5095157;28;20076;-62
2021/11/29 01:12:09;;;;;;;12.23;2.73;;;;;;;13.09;73.94;101051.28;5092957;28;20134;-62
2021/11/29 01:14:36;;;;;;;10.53;1.77;;;;;;;13.17;73.94;101033.91;5092075;28;20048;-62
2021/11/29 01:17:04;;;;;;;9.90;1.93;;;;;;;13.23;73.57;101043.94;5091044;28;20082;-62
2021/11/29 01:19:31;;;;;;;12.13;3.00;;;;;;;13.20;73.93;101052.97;5088609;28;20052;-62
2021/11/29 01:21:58;;;;;;;8.67;1.60;;;;;;;13.22;73.74;101059.94;5094112;28;20265;-66
2021/11/29 01:24:26;;;;;;;6.23;2.23;;;;;;;13.25;73.73;101044.53;5094538;28;20068;-66
2021/11/29 01:26:53;;;;;;;8.07;1.60;;;;;;;13.29;73.69;101054.06;5093824;28;20143;-66
2021/11/29 01:29:20;;;;;;;8.97;3.07;;;;;;;13.24;73.73;101045.69;5093391;28;20048;-66
2021/11/29 01:31:47;;;;;;;9.37;1.93;;;;;;;13.24;73.55;101057.72;5088182;28;20083;-64
2021/11/29 01:34:15;;;;;;;14.00;2.03;;;;;;;13.23;73.50;101055.16;5094460;28;20697;-63
2021/11/29 01:36:42;;;;;;;17.03;1.77;;;;;;;13.25;73.64;101059.41;5090319;28;20402;-63
2021/11/29 01:39:09;;;;;;;7.13;2.03;;;;;;;13.24;73.60;101045.69;5094859;28;20123;-63
2021/11/29 01:41:37;;;;;;;6.97;1.37;;;;;;;13.32;73.81;101052.66;5093781;28;20547;-63
2021/11/29 01:44:04;;;;;;;6.57;1.50;;;;;;;13.39;73.23;101050.38;5093158;28;20127;-63
2021/11/29 01:46:31;;;;;;;12.53;2.60;;;;;;;13.39;73.19;101056.81;5091862;28;20203;-63
2021/11/29 01:48:58;;;;;;;9.90;1.30;;;;;;;13.43;73.31;101055.09;5091997;28;20474;-65
2021/11/29 01:51:25;;;;;;;9.73;1.40;;;;;;;13.55;73.47;101067.97;5099673;28;20075;-60
2021/11/29 01:53:52;;;;;;;6.43;1.00;;;;;;;13.54;73.17;101047.50;5092409;28;20082;-61
2021/11/29 01:56:19;;;;;;;3.90;0.93;;;;;;;13.50;73.11;101055.66;5093358;28;20079;-60
2021/11/29 01:58:46;;;;;;;8.93;1.53;;;;;;;13.38;73.28;101054.31;5102083;28;20553;-61
2021/11/29 02:01:16;;;;;;;4.80;2.40;;;;;;;13.33;73.32;101057.13;5092482;28;20044;-61
2021/11/29 02:03:46;;;;;;;6.27;1.10;;;;;;;13.22;73.42;101057.13;5091450;28;20047;-59
2021/11/29 02:06:13;;;;;;;3.33;0.93;;;;;;;13.13;73.48;101041.19;5077058;28;20130;-60
2021/11/29 02:08:40;;;;;;;1.07;0.50;;;;;;;13.05;73.52;101051.84;5092712;28;20478;-60
2021/11/29 02:11:07;;;;;;;2.90;1.27;;;;;;;13.02;73.61;101060.88;5092241;28;20444;-62
2021/11/29 02:13:34;;;;;;;7.03;1.27;;;;;;;12.98;73.49;101056.94;5072789;28;20454;-62
2021/11/29 02:16:03;;;;;;;3.57;0.90;;;;;;;12.92;73.64;101051.63;5092722;28;20048;-63
2021/11/29 02:18:34;;;;;;;4.13;1.90;;;;;;;12.96;73.44;101045.19;5085529;28;20054;-63
2021/11/29 02:21:14;;;;;;;3.25;1.02;;;;;;;13.02;73.36;101043.19;5088591;28;20127;-64
2021/11/29 02:23:46;;;;;;;5.77;0.90;;;;;;;13.15;73.43;101047.34;5091493;28;20091;-64
2021/11/29 02:26:14;;;;;;;4.10;1.67;;;;;;;13.25;72.85;101027.72;5093140;28;20186;-64
2021/11/29 02:28:46;;;;;;;7.77;1.57;;;;;;;13.43;72.03;101038.28;5093626;28;20082;-64
2021/11/29 02:31:17;;;;;;;1.90;0.90;;;;;;;13.49;72.07;101044.72;5092548;28;20564;-63
2021/11/29 02:33:44;;;;;;;4.20;1.10;;;;;;;13.39;72.01;101054.00;5093083;28;20044;-63
2021/11/29 02:36:11;;;;;;;3.83;1.60;;;;;;;13.32;72.16;101041.44;5091470;28;20135;-63
2021/11/29 02:38:38;;;;;;;3.30;0.77;;;;;;;13.18;72.11;101027.16;5092244;28;20181;-62
2021/11/29 02:41:06;;;;;;;1.70;0.80;;;;;;;13.23;72.02;101058.84;5092250;28;20043;-61
2021/11/29 02:43:33;;;;;;;7.70;1.33;;;;;;;12.99;72.32;101043.75;5089934;28;20471;-60
2021/11/29 02:46:00;;;;;;;1.33;0.90;;;;;;;12.97;72.34;101066.47;5092593;28;20459;-60
2021/11/29 02:48:48;;;;;;;4.33;1.50;;;;;;;12.91;72.44;101055.56;5094122;28;20071;-60
2021/11/29 02:51:21;;;;;;;2.90;1.53;;;;;;;12.84;72.72;101061.44;5074213;28;20128;-61
2021/11/29 02:53:48;;;;;;;4.00;1.07;;;;;;;12.86;72.81;101067.63;5083433;28;20126;-61
2021/11/29 02:56:15;;;;;;;3.87;1.00;;;;;;;12.85;72.72;101060.31;5091983;28;20079;-60
2021/11/29 02:58:42;;;;;;;4.27;0.90;;;;;;;12.82;72.97;101069.31;5092527;28;20105;-64
2021/11/29 03:01:10;;;;;;;2.23;1.43;;;;;;;12.86;73.06;101069.59;5090980;28;20087;-64
2021/11/29 03:03:51;;;;;;;2.07;0.80;;;;;;;12.78;73.03;101055.00;5090979;28;20484;-65
2021/11/29 03:06:19;;;;;;;3.80;0.90;;;;;;;12.79;72.82;101055.88;5092403;28;20040;-66
2021/11/29 03:08:46;;;;;;;7.10;1.00;;;;;;;12.76;72.98;101057.28;5104314;28;20157;-67
2021/11/29 03:11:15;;;;;;;2.77;1.00;;;;;;;12.78;72.99;101073.78;5090899;28;20036;-65
2021/11/29 03:13:43;;;;;;;5.07;0.93;;;;;;;12.77;73.21;101070.16;5087484;28;20124;-66
2021/11/29 03:16:10;;;;;;;7.93;1.10;;;;;;;12.73;73.06;101073.81;5091224;28;20072;-66
2021/11/29 03:18:40;;;;;;;4.73;1.40;;;;;;;12.66;73.17;101078.88;5091909;28;20048;-66
2021/11/29 03:21:08;;;;;;;11.65;1.23;;;;;;;12.59;73.20;101079.16;5091533;28;20559;-66
2021/11/29 03:23:36;;;;;;;5.90;1.10;;;;;;;12.40;73.62;101061.22;5089923;28;20048;-66
2021/11/29 03:26:09;;;;;;;2.00;0.93;;;;;;;12.32;73.87;101071.03;5063455;28;20130;-66
2021/11/29 03:28:40;;;;;;;5.37;0.80;;;;;;;12.15;74.43;101048.06;5091138;28;20040;-67
2021/11/29 03:31:08;;;;;;;6.37;1.43;;;;;;;12.19;74.48;101050.00;5086966;28;20048;-65
2021/11/29 03:33:36;;;;;;;5.40;1.50;;;;;;;12.24;74.42;101051.97;5086014;28;20040;-66
2021/11/29 03:36:04;;;;;;;7.30;1.00;;;;;;;12.24;74.29;101049.16;5089878;28;20093;-63
2021/11/29 03:38:33;;;;;;;2.73;0.70;;;;;;;12.34;74.32;101054.75;5085713;28;20070;-63
2021/11/29 03:41:01;;;;;;;1.93;1.10;;;;;;;12.31;74.21;101056.19;5091114;28;20084;-64
2021/11/29 03:43:28;;;;;;;1.37;0.77;;;;;;;12.14;74.19;101038.00;5090855;28;20551;-64
2021/11/29 03:45:54;;;;;;;2.07;0.83;;;;;;;12.08;74.06;101049.19;5091271;28;20072;-65
2021/11/29 03:48:22;;;;;;;4.73;0.90;;;;;;;12.21;74.09;101072.16;5091069;28;20051;-64
2021/11/29 03:50:49;;;;;;;5.00;0.70;;;;;;;11.90;74.03;101037.66;5072363;28;20079;-63
2021/11/29 03:53:16;;;;;;;2.70;1.27;;;;;;;12.11;73.98;101074.94;5094667;28;20090;-64
2021/11/29 03:55:43;;;;;;;12.23;2.40;;;;;;;12.04;74.05;101078.00;5091836;28;20127;-63
2021/11/29 03:58:10;;;;;;;5.43;0.80;;;;;;;12.08;73.99;101073.53;5094691;28;20151;-68
2021/11/29 04:00:37;;;;;;;6.10;0.77;;;;;;;12.19;74.23;101085.56;5096086;28;20102;-68
2021/11/29 04:03:05;;;;;;;2.40;1.00;;;;;;;12.20;74.17;101095.66;5081985;28;20057;-67
2021/11/29 04:05:32;;;;;;;8.63;1.20;;;;;;;12.19;74.35;101089.22;5076080;28;20059;-67
2021/11/29 04:07:59;;;;;;;7.00;0.83;;;;;;;12.24;74.32;101093.97;5090465;28;20135;-67
2021/11/29 04:10:26;;;;;;;2.87;0.57;;;;;;;12.29;74.35;101082.78;5089548;28;20420;-69
2021/11/29 04:12:53;;;;;;;4.00;0.77;;;;;;;12.35;74.28;101095.69;5090460;28;20113;-67
2021/11/29 04:15:20;;;;;;;6.93;1.20;;;;;;;12.36;74.33;101088.94;5090182;28;20075;-68
2021/11/29 04:17:47;;;;;;;5.70;1.30;;;;;;;12.45;74.30;101098.47;5089198;28;20082;-69
2021/11/29 04:20:15;;;;;;;2.83;0.87;;;;;;;12.47;74.20;101096.22;5090378;28;20131;-67
2021/11/29 04:22:46;;;;;;;4.63;0.87;;;;;;;12.41;74.44;101094.56;5090497;28;20122;-69
2021/11/29 04:25:16;;;;;;;8.67;0.80;;;;;;;12.42;74.57;101099.03;5089644;28;20123;-69
2021/11/29 04:27:46;;;;;;;7.43;0.93;;;;;;;12.40;74.54;101095.66;5087415;28;20609;-66
2021/11/29 04:30:19;;;;;;;7.90;1.00;;;;;;;12.38;74.70;101089.53;5090905;28;20555;-65
2021/11/29 04:32:49;;;;;;;6.03;1.17;;;;;;;12.35;74.80;101087.28;5091199;28;20159;-65
2021/11/29 04:35:16;;;;;;;8.60;1.23;;;;;;;12.35;74.86;101094.84;5091982;28;20126;-62
2021/11/29 04:37:43;;;;;;;8.67;1.23;;;;;;;12.36;74.92;101094.56;5096892;28;20300;-61
2021/11/29 04:40:11;;;;;;;6.37;0.90;;;;;;;12.28;75.03;101075.50;5096174;28;20090;-61
2021/11/29 04:42:38;;;;;;;3.23;1.40;;;;;;;12.37;74.97;101090.63;5077169;28;20538;-61
2021/11/29 04:45:06;;;;;;;9.07;1.27;;;;;;;12.38;75.13;101083.91;5087181;28;20126;-61
2021/11/29 04:47:33;;;;;;;8.60;1.53;;;;;;;12.37;75.18;101087.81;5096612;28;20131;-66
2021/11/29 04:50:00;;;;;;;7.83;1.40;;;;;;;12.32;75.20;101091.47;5100795;28;21573;-65
2021/11/29 04:52:27;;;;;;;1.73;0.60;;;;;;;12.16;75.42;101063.72;5096056;28;20131;-64
2021/11/29 04:54:54;;;;;;;10.90;1.33;;;;;;;12.26;75.37;101086.16;5097291;28;20358;-64
2021/11/29 04:57:21;;;;;;;7.00;1.50;;;;;;;12.27;75.59;101099.88;5094673;28;20138;-63
2021/11/29 04:59:48;;;;;;;8.33;1.27;;;;;;;12.21;75.47;101077.75;5089092;28;20123;-64
2021/11/29 05:02:15;;;;;;;3.90;1.20;;;;;;;12.29;75.41;101099.59;5097460;28;20570;-66
2021/11/29 05:04:46;;;;;;;6.07;0.73;;;;;;;12.32;75.47;101099.03;5096159;28;20044;-65
2021/11/29 05:07:14;;;;;;;3.53;0.90;;;;;;;12.32;75.23;101085.88;5095942;28;20491;-65
2021/11/29 05:09:42;;;;;;;2.33;0.67;;;;;;;12.33;74.92;101092.31;5097776;28;20098;-68
2021/11/29 05:12:10;;;;;;;4.43;1.40;;;;;;;12.33;75.24;101086.69;5097831;28;20130;-68
2021/11/29 05:14:37;;;;;;;8.10;1.00;;;;;;;12.37;75.39;101087.81;5099477;28;20130;-63
2021/11/29 05:17:04;;;;;;;5.37;0.77;;;;;;;12.40;75.24;101087.25;5100165;27;20083;-62
2021/11/29 05:19:31;;;;;;;3.63;0.90;;;;;;;12.44;75.25;101091.19;5110370;28;20047;-66
2021/11/29 05:21:58;;;;;;;3.33;1.13;;;;;;;12.48;75.16;101099.91;5079057;28;20425;-66
2021/11/29 05:24:25;;;;;;;3.13;1.13;;;;;;;12.41;75.14;101085.28;5095725;28;20138;-63
2021/11/29 05:26:52;;;;;;;9.30;1.47;;;;;;;12.43;74.92;101092.31;5074866;28;20048;-65
2021/11/29 05:29:19;;;;;;;10.37;1.37;;;;;;;12.44;74.84;101098.75;5094282;28;20178;-63
2021/11/29 05:31:45;;;;;;;8.13;1.80;;;;;;;12.40;74.95;101089.22;5093695;28;20123;-64
2021/11/29 05:34:16;;;;;;;5.13;1.20;;;;;;;12.25;74.93;101078.88;5099259;28;20452;-62
2021/11/29 05:36:44;;;;;;;10.17;1.20;;;;;;;12.25;75.23;101096.50;5097431;28;20047;-67
2021/11/29 05:39:14;;;;;;;5.07;1.43;;;;;;;12.11;75.27;101086.16;5090909;28;20075;-71
2021/11/29 05:41:42;;;;;;;12.52;1.63;;;;;;;12.12;75.14;101093.41;5091404;28;20075;-72
2021/11/29 05:44:09;;;;;;;9.13;1.53;;;;;;;12.11;75.34;101097.34;5101394;28;20139;-73
2021/11/29 05:46:36;;;;;;;8.43;1.60;;;;;;;12.13;75.24;101093.13;5097191;28;20195;-77
2021/11/29 05:49:03;;;;;;;8.10;1.03;;;;;;;12.17;75.11;101096.19;5093469;28;20078;-69
2021/11/29 05:51:30;;;;;;;8.07;1.77;;;;;;;12.29;75.05;101103.22;5093273;28;20241;-76
2021/11/29 05:53:57;;;;;;;11.40;1.07;;;;;;;12.25;75.18;101076.06;5092648;28;20075;-76
2021/11/29 05:56:24;;;;;;;3.53;1.30;;;;;;;12.41;75.05;101100.16;5071284;28;20048;-75
2021/11/29 05:58:51;;;;;;;8.80;1.40;;;;;;;12.44;75.32;101099.59;5088725;28;20056;-75
2021/11/29 06:01:21;;;;;;;6.23;1.03;;;;;;;12.18;75.36;101056.75;5099298;28;20131;-75
2021/11/29 06:03:49;;;;;;;2.33;0.52;;;;;;;12.34;76.02;101091.19;5096406;28;20395;-74
2021/11/29 06:06:17;;;;;;;0.30;0.30;;;;;;;12.32;76.32;101097.06;5088653;28;20048;-75
2021/11/29 06:08:44;;;;;;;1.67;0.63;;;;;;;12.30;76.42;101104.91;5092719;28;20094;-74
2021/11/29 06:11:11;;;;;;;1.60;1.27;;;;;;;12.27;76.29;101116.69;5073323;28;20071;-68
2021/11/29 06:13:38;;;;;;;1.13;0.70;;;;;;;12.23;76.41;101114.69;5092842;28;20044;-74
2021/11/29 06:16:05;;;;;;;3.43;1.00;;;;;;;12.19;76.41;101107.97;5090239;28;20403;-74
2021/11/29 06:18:32;;;;;;;5.47;1.17;;;;;;;12.07;76.15;101106.28;5092412;28;20617;-74
2021/11/29 06:20:59;;;;;;;2.03;0.70;;;;;;;12.08;76.25;101113.56;5090895;28;20467;-70
2021/11/29 06:23:26;;;;;;;7.67;0.80;;;;;;;12.01;76.17;101107.41;5090357;28;20456;-70
2021/11/29 06:25:53;;;;;;;3.20;0.70;;;;;;;12.03;76.26;101109.91;5085581;28;20052;-72
2021/11/29 06:28:20;;;;;;;6.03;1.53;;;;;;;12.09;76.06;101117.19;5091752;28;20489;-66
2021/11/29 06:30:47;;;;;;;1.63;0.60;;;;;;;12.03;76.02;101121.97;5091482;28;20129;-72
2021/11/29 06:33:13;;;;;;;4.63;0.90;;;;;;;12.01;75.95;101124.19;5092932;28;20594;-63
2021/11/29 06:35:40;;;;;;;1.93;0.87;;;;;;;12.00;75.70;101128.13;5091339;28;20085;-63
2021/11/29 06:38:07;;;;;;;3.33;0.87;;;;;;;12.00;75.49;101142.09;5080704;28;20131;-64
2021/11/29 06:40:35;;;;;;;5.00;0.70;;;;;;;12.03;75.16;101133.16;5094692;28;20086;-67
2021/11/29 06:43:02;;;;;;;1.10;0.60;;;;;;;12.01;75.14;101132.59;5089840;28;20090;-69
2021/11/29 06:45:29;;;;;;;1.17;0.50;;;;;;;12.00;75.12;101133.72;5090115;28;20124;-67
2021/11/29 06:47:56;;;;;;;3.90;0.70;;;;;;;11.92;74.95;101134.22;5091050;28;20587;-66
2021/11/29 06:50:23;;;;;;;7.30;0.80;;;;;;;11.97;74.66;101150.22;5090081;28;20127;-66
2021/11/29 06:52:50;;;;;;;4.60;0.90;;;;;;;11.96;74.71;101162.50;5087359;28;20071;-68
2021/11/29 06:55:20;;;;;;;4.33;1.00;;;;;;;11.93;74.63;101154.66;5088655;28;20071;-66
2021/11/29 06:57:48;;;;;;;6.32;1.00;;;;;;;11.90;74.65;101161.66;5091406;28;20102;-59
2021/11/29 07:00:20;;;;;;;4.13;0.57;;;;;;;11.83;74.81;101149.88;5089263;28;20124;-59
2021/11/29 07:02:48;;;;;;;4.57;1.07;;;;;;;11.75;74.92;101142.81;5087470;28;20127;-70
2021/11/29 07:05:15;;;;;;;2.80;1.07;;;;;;;11.79;75.22;101151.50;5095003;28;20067;-65
2021/11/29 07:07:44;;;;;;;4.37;1.07;;;;;;;11.72;75.25;101150.91;5096140;28;20465;-61
2021/11/29 07:10:11;;;;;;;4.07;0.80;;;;;;;11.70;75.36;101144.78;5100965;28;20143;-61
2021/11/29 07:12:44;;;;;;;9.53;0.90;;;;;;;11.22;75.73;101068.50;5086736;28;20052;-60
2021/11/29 07:15:12;;;;;;;4.80;1.20;;;;;;;11.63;75.88;101142.22;5088737;28;20131;-59
2021/11/29 07:17:39;;;;;;;6.43;0.90;;;;;;;11.72;76.05;101160.16;5089278;28;20135;-58
2021/11/29 07:20:07;;;;;;;4.50;1.37;;;;;;;11.67;76.15;101154.53;5090076;28;20487;-58
2021/11/29 07:22:35;;;;;;;6.70;1.30;;;;;;;11.76;76.23;101166.03;5062215;28;20080;-59
2021/11/29 07:25:04;;;;;;;4.47;1.03;;;;;;;11.73;76.39;101172.22;5086997;28;20044;-59
2021/11/29 07:27:32;;;;;;;7.57;1.23;;;;;;;11.65;76.43;101153.13;5089495;28;20602;-58
2021/11/29 07:30:01;;;;;;;5.93;0.97;;;;;;;11.76;76.28;101166.91;5089808;28;20044;-57
2021/11/29 07:32:29;;;;;;;7.73;1.90;;;;;;;11.85;76.17;101186.81;5090549;28;20056;-58
2021/11/29 07:34:57;;;;;;;6.47;1.90;;;;;;;11.87;76.01;101170.63;5089025;28;20127;-59
2021/11/29 07:37:24;;;;;;;5.93;1.30;;;;;;;11.86;75.98;101166.09;5087682;28;20154;-59
2021/11/29 07:39:52;;;;;;;7.57;2.30;;;;;;;11.89;75.85;101165.56;5087421;28;20181;-59
2021/11/29 07:42:19;;;;;;;4.97;1.27;;;;;;;11.96;75.91;101174.53;5070231;28;20113;-59
2021/11/29 07:44:47;;;;;;;8.30;1.20;;;;;;;12.00;75.93;101189.69;5093089;28;20052;-59
2021/11/29 07:47:14;;;;;;;4.20;1.00;;;;;;;12.01;76.05;101191.38;5072405;28;20526;-58
2021/11/29 07:49:41;;;;;;;3.10;1.20;;;;;;;12.04;75.78;101204.81;5088704;28;20454;-58
2021/11/29 07:52:08;;;;;;;4.13;1.27;;;;;;;12.09;75.89;101209.59;5089037;28;20127;-59
2021/11/29 07:54:36;;;;;;;10.57;1.83;;;;;;;12.08;75.82;101214.34;5087178;28;20071;-58
2021/11/29 07:57:03;;;;;;;8.57;1.50;;;;;;;12.03;76.16;101203.16;5084852;28;20080;-58
2021/11/29 07:59:31;;;;;;;7.33;1.83;;;;;;;11.83;75.70;101173.09;5085945;28;20519;-58
2021/11/29 08:02:17;;;;;;;5.97;1.90;;;;;;;12.09;75.71;101213.22;5085259;28;20044;-59
2021/11/29 08:04:44;;;;;;;7.50;2.23;;;;;;;12.13;75.65;101221.91;5088603;28;20051;-59
2021/11/29 08:07:11;;;;;;;9.07;1.93;;;;;;;12.23;75.68;101232.31;5089262;28;20127;-58
2021/11/29 08:09:38;;;;;;;6.27;1.70;;;;;;;12.23;75.48;101223.91;5085643;28;20139;-59
2021/11/29 08:12:05;;;;;;;6.30;1.80;;;;;;;12.28;75.43;101229.53;5089173;28;20111;-59
2021/11/29 08:14:32;;;;;;;10.17;2.37;;;;;;;12.30;75.74;101238.50;5087024;28;20087;-59
2021/11/29 08:16:58;;;;;;;9.53;2.10;;;;;;;12.30;75.49;101228.13;5089728;28;20123;-59
2021/11/29 08:19:25;;;;;;;4.57;1.37;;;;;;;12.39;75.74;101238.81;5089038;28;20083;-59
2021/11/29 08:21:52;;;;;;;7.30;2.00;;;;;;;12.40;75.74;101238.53;5086471;28;20072;-60
2021/11/29 08:24:19;;;;;;;13.07;2.50;;;;;;;12.40;75.72;101240.47;5098615;28;20082;-60
2021/11/29 08:26:46;;;;;;;4.60;2.17;;;;;;;12.54;75.70;101250.88;5091184;28;20080;-60
2021/11/29 08:29:13;;;;;;;11.63;3.00;;;;;;;12.63;75.66;101248.38;5090383;28;20098;-60
2021/11/29 08:31:39;;;;;;;5.27;2.20;;;;;;;12.75;75.53;101246.19;5091533;28;20075;-60
2021/11/29 08:34:06;;;;;;;4.90;1.70;;;;;;;12.86;75.32;101249.00;5091444;28;20075;-60
2021/11/29 08:36:35;;;;;;;6.40;2.53;;;;;;;12.70;75.09;101206.09;5072988;28;20056;-60
2021/11/29 08:39:06;;;;;;;9.63;2.53;;;;;;;12.91;75.41;101243.38;5091728;28;20071;-60
2021/11/29 08:41:33;;;;;;;8.53;2.67;;;;;;;12.94;75.60;101242.81;5091099;28;20040;-60
2021/11/29 08:44:03;;;;;;;11.57;3.17;;;;;;;13.01;75.63;101248.97;5091659;28;20139;-60
2021/11/29 08:46:32;;;;;;;14.38;4.50;;;;;;;12.79;75.41;101205.25;5074075;28;20048;-59
2021/11/29 08:49:00;;;;;;;10.03;3.50;;;;;;;13.06;75.52;101246.19;5077676;28;20077;-60
2021/11/29 08:51:27;;;;;;;10.47;2.63;;;;;;;13.17;75.80;101252.63;5101638;28;20040;-59
2021/11/29 08:53:54;;;;;;;8.97;3.53;;;;;;;13.66;76.69;101232.38;5101011;28;20150;-60
2021/11/29 08:56:21;;;;;;;6.53;2.00;;;;;;;14.63;77.47;101243.19;5099577;28;20075;-60
2021/11/29 08:58:48;;;;;;;6.20;2.20;;;;;;;15.11;77.74;101240.59;5091302;28;20054;-60
2021/11/29 09:01:15;;;;;;;8.17;2.63;;;;;;;16.06;77.21;101247.50;5091121;28;20070;-60
2021/11/29 09:03:42;;;;;;;5.18;1.55;;;;;;;16.48;76.69;101245.88;5090312;28;20091;-59
2021/11/29 09:06:09;;;;;;;6.93;1.75;;;;;;;16.30;75.99;101239.03;5090243;28;20044;-60
2021/11/29 09:08:38;;;;;;;9.70;2.42;;;;;;;16.33;76.20;101247.72;5090540;28;20044;-59
2021/11/29 09:11:05;;;;;;;3.92;1.40;;;;;;;16.61;75.30;101261.16;5090584;28;20086;-59
2021/11/29 09:13:42;;;;;;;8.07;1.58;;;;;;;16.47;74.74;101261.06;5071678;28;20135;-59
2021/11/29 09:16:11;;;;;;;6.35;1.30;;;;;;;16.22;74.22;101243.38;5068181;28;20080;-59
2021/11/29 09:18:39;;;;;;;;;;;;;;;16.01;75.40;101256.03;5102241;28;20530;-60
2021/11/29 09:21:10;;;;;;;5.72;2.47;;;;;;;15.95;74.17;101265.69;5105178;28;20324;-60
2021/11/29 09:23:39;;;;;;;3.88;1.08;;;;;;;15.72;73.90;101264.53;5092780;28;20050;-58
2021/11/29 09:26:06;;;;;;;8.18;1.63;;;;;;;15.54;73.82;101271.72;5092286;28;20135;-58
2021/11/29 09:28:34;;;;;;;3.53;1.33;;;;;;;15.36;73.39;101288.22;5097910;28;20131;-59
2021/11/29 09:31:02;;;;;;;11.82;3.13;;;;;;;15.20;73.30;101286.66;5093990;28;20086;-58
2021/11/29 09:33:31;;;;;;;6.00;1.85;;;;;;;15.05;73.33;101282.00;5094061;28;20178;-58
2021/11/29 09:35:58;;;;;;;5.38;1.58;;;;;;;14.90;73.42;101274.50;5093313;28;20522;-59
2021/11/29 09:38:25;;;;;;;6.27;1.97;;;;;;;14.76;73.33;101276.28;5094274;28;20130;-59
2021/11/29 09:40:52;;;;;;;6.87;2.40;;;;;;;14.73;73.51;101279.69;5094790;28;20070;-59
2021/11/29 09:43:21;;;;;;;4.40;1.90;;;;;;;14.60;73.49;101286.81;5073475;28;20071;-60
2021/11/29 09:45:51;;;;;;;4.63;1.97;;;;;;;14.34;73.45;101277.63;5085172;28;20483;-59
2021/11/29 09:48:20;;;;;;;11.32;4.22;;;;;;;14.17;73.60;101291.19;5094037;28;20052;-60
2021/11/29 09:50:54;;;;;;;9.60;2.67;;;;;;;13.99;73.61;101296.31;5096797;28;20098;-60
2021/11/29 09:53:24;;;;;;;7.43;1.98;;;;;;;13.84;73.52;101296.31;5094169;28;20131;-60
2021/11/29 09:55:52;;;;;;;9.40;2.87;;;;;;;13.81;73.63;101307.28;5093296;28;20127;-60
2021/11/29 09:58:19;;;;;;;10.57;3.83;;;;;;;13.71;73.72;101291.34;5094137;28;20066;-60
2021/11/29 10:00:51;;;;;;;9.63;3.00;;;;;;;13.91;73.75;101307.25;5092323;28;20143;-59
2021/11/29 10:03:20;;;;;;;7.93;1.90;;;;;;;13.93;73.71;101282.56;5090697;28;20067;-59
2021/11/29 10:05:48;;;;;;;7.83;3.33;;;;;;;14.32;73.91;101296.72;5093242;28;20584;-60
2021/11/29 10:08:35;;;;;;;10.27;4.83;;;;;;;15.05;74.19;101307.31;5097243;28;20126;-62
2021/11/29 10:11:24;;;;;;;9.88;3.45;;;;;;;15.64;73.89;101299.78;5106999;28;20059;-60
2021/11/29 10:13:55;;;;;;;6.75;3.47;;;;;;;15.73;73.73;101305.66;5075834;28;20147;-60
2021/11/29 10:16:28;;;;;;;;;;;;;;;15.91;74.57;101301.25;5082466;28;20044;-59
2021/11/29 10:18:56;;;;;;;6.25;3.75;;;;;;;16.51;74.31;101298.78;5091784;28;19985;-59
2021/11/29 10:21:23;;;;;;;7.20;3.22;;;;;;;17.34;74.71;101297.31;5093922;28;20086;-60
2021/11/29 10:23:54;;;;;;;9.18;2.88;;;;;;;18.58;73.98;101297.47;5097692;28;20135;-61
2021/11/29 10:26:30;;;;;;;5.78;2.85;;;;;;;19.68;73.11;101304.78;5109142;28;20079;-60
2021/11/29 10:29:07;;;;;;;7.30;2.33;;;;;;;20.58;71.78;101296.00;5094031;28;20139;-59
2021/11/29 10:31:49;;;;;;;6.00;2.80;;;;;;;21.25;70.71;101306.09;5056011;28;20088;-60
2021/11/29 10:34:27;;;;;;;6.82;3.25;;;;;;;21.94;69.40;101290.94;5074583;28;20460;-62
2021/11/29 10:36:55;;;;;;;4.40;2.10;;;;;;;22.67;67.42;101293.66;5069553;28;20114;-60
2021/11/29 10:39:26;;;;;;;5.10;2.25;;;;;;;23.25;66.59;101294.72;5072251;28;20083;-61
2021/11/29 10:41:58;;;;;;;6.68;2.42;;;;;;;23.47;64.66;101267.03;5072672;28;20119;-60
2021/11/29 10:44:31;;;;;;;6.47;3.25;;;;;;;24.05;62.65;101282.16;5053866;28;20463;-60
2021/11/29 10:47:01;;;;;;;5.60;2.60;;;;;;;24.55;61.12;101295.31;5062173;28;20124;-60
2021/11/29 10:49:31;;;;;;;6.07;2.35;;;;;;;24.73;60.26;101296.72;5068926;28;20089;-59
2021/11/29 10:52:01;;;;;;;6.85;2.30;;;;;;;25.04;58.07;101292.38;5073323;28;20080;-59
2021/11/29 10:54:31;;;;;;;10.15;2.60;;;;;;;25.13;55.88;101293.09;5072938;28;20132;-59
2021/11/29 10:56:59;;;;;;;3.58;2.20;;;;;;;25.48;55.18;101272.47;5072084;28;20127;-59
2021/11/29 10:59:29;;;;;;;4.22;1.35;;;;;;;25.90;53.48;101272.00;5073054;28;20468;-59
2021/11/29 11:02:03;;;;;;;3.42;1.80;;;;;;;25.53;53.30;101269.31;5074227;28;20057;-58
2021/11/29 11:04:33;;;;;;;3.03;1.10;;;;;;;24.56;52.62;101269.25;5051450;28;20045;-59
2021/11/29 11:07:01;;;;;;;;;;;;;;;23.30;55.12;101273.72;5055428;28;20087;-59
2021/11/29 11:09:37;;;;;;;4.32;1.27;;;;;;;22.35;53.78;101273.22;5074830;28;19962;-59
2021/11/29 11:12:05;;;;;;;5.00;1.33;;;;;;;21.24;54.09;101271.19;5072591;28;20041;-60
2021/11/29 11:14:35;;;;;;;4.93;1.40;;;;;;;20.46;55.32;101271.06;5072455;28;20914;-60
2021/11/29 11:17:25;;;;;;;6.43;1.67;;;;;;;19.43;56.17;101263.75;5074481;28;20048;-60
2021/11/29 11:19:53;;;;;;;;;;;;;;;18.53;57.29;101268.44;5054705;28;20133;-60
2021/11/29 11:22:39;;;;;;;8.10;3.28;;;;;;;18.11;58.03;101271.31;5073496;28;20011;-60
2021/11/29 11:25:07;;;;;;;3.05;1.60;;;;;;;17.76;58.07;101258.72;5071949;28;20091;-59
2021/11/29 11:27:43;;;;;;;10.65;2.05;;;;;;;17.17;58.85;101243.41;5071647;28;20389;-59
2021/11/29 11:30:15;;;;;;;7.80;2.55;;;;;;;16.90;59.32;101261.06;5079172;28;20583;-59